Time;durP1;ratioP1;P1;durP2;ratioP2;P2;SDS_P1;SDS_P2;PMS_P1;PMS_P2;Temp;Humidity;BMP_temperature;BMP_pressure;BME280_temperature;BME280_humidity;BME280_pressure;Samples;Min_cycle;Max_cycle;Signal;HPM_P1;HPM_P2
2024/02/18 00:08:46;;;;;;;3.40;2.00;;;;;;;5.06;79.08;100122.52;435391;1253;112812;-41
2024/02/18 00:18:53;;;;;;;5.90;2.80;;;;;;;5.15;79.02;100137.29;435426;1254;108249;-40
2024/02/18 00:29:00;;;;;;;7.70;3.50;;;;;;;5.13;78.94;100140.13;435421;1251;99172;-40
2024/02/18 00:39:09;;;;;;;6.90;4.70;;;;;;;5.09;78.93;100144.21;435368;1253;108226;-40
2024/02/18 00:49:16;;;;;;;7.50;2.60;;;;;;;5.05;78.74;100161.11;435545;1253;98830;-43
2024/02/18 00:59:25;;;;;;;6.50;2.60;;;;;;;4.99;79.02;100167.31;435485;1253;111610;-39
2024/02/18 01:09:33;;;;;;;8.50;3.70;;;;;;;4.83;79.25;100173.34;435728;1253;107628;-40
2024/02/18 01:19:40;;;;;;;3.60;2.10;;;;;;;4.69;79.51;100185.89;435431;1253;99224;-40
2024/02/18 01:29:47;;;;;;;3.70;2.00;;;;;;;4.63;79.70;100188.60;435395;1251;112859;-39
2024/02/18 01:39:55;;;;;;;6.10;2.80;;;;;;;4.62;79.88;100190.66;435286;1250;108428;-39
2024/02/18 01:50:04;;;;;;;6.70;2.80;;;;;;;4.56;80.12;100193.14;435583;1251;97997;-39
2024/02/18 02:00:15;;;;;;;8.20;3.10;;;;;;;4.45;80.36;100197.59;435493;1250;107738;-39
2024/02/18 02:10:23;;;;;;;6.90;2.70;;;;;;;4.41;80.56;100204.97;435489;1250;99192;-40
2024/02/18 02:20:30;;;;;;;4.80;2.30;;;;;;;4.35;80.44;100211.54;436267;1253;111437;-40
2024/02/18 02:30:37;;;;;;;6.60;2.60;;;;;;;4.38;80.50;100211.20;435324;1254;108278;-40
2024/02/18 02:40:44;;;;;;;7.30;3.50;;;;;;;4.39;80.82;100210.26;435362;1251;98168;-40
2024/02/18 02:50:51;;;;;;;6.80;3.40;;;;;;;4.33;80.94;100214.80;435351;1253;107342;-40
2024/02/18 03:00:58;;;;;;;7.20;3.10;;;;;;;4.22;80.98;100215.94;435377;1251;98038;-41
2024/02/18 03:11:06;;;;;;;8.60;3.60;;;;;;;4.13;81.14;100223.91;435564;1251;112096;-40
2024/02/18 03:41:23;;;;;;;5.10;3.00;;;;;;;4.08;81.24;100241.76;435388;1254;106848;-39
2024/02/18 03:51:31;;;;;;;4.70;2.90;;;;;;;4.00;81.32;100245.43;435289;1250;99279;-42
2024/02/18 04:01:37;;;;;;;15.40;8.40;;;;;;;3.90;81.38;100247.45;435314;1250;111981;-40
2024/02/18 04:11:44;;;;;;;22.60;8.80;;;;;;;3.82;81.37;100251.23;434812;1254;638576;-39
2024/02/18 04:21:51;;;;;;;21.40;10.80;;;;;;;3.79;81.23;100257.74;435279;1254;99228;-40
2024/02/18 04:42:06;;;;;;;11.50;4.30;;;;;;;3.82;81.49;100263.59;435344;1250;108204;-40
2024/02/18 04:52:13;;;;;;;14.70;4.30;;;;;;;3.71;81.59;100261.34;435441;1254;99858;-41
2024/02/18 05:12:27;;;;;;;7.40;3.00;;;;;;;3.59;81.44;100251.79;435385;1254;109301;-40
2024/02/18 05:22:34;;;;;;;7.70;3.90;;;;;;;3.59;81.29;100257.60;435311;1250;99229;-41
2024/02/18 05:32:41;;;;;;;7.50;4.60;;;;;;;3.65;81.11;100257.48;436017;1250;110905;-40
2024/02/18 05:42:49;;;;;;;6.60;4.80;;;;;;;3.62;80.99;100261.33;435330;1254;107425;-38
2024/02/18 05:52:56;;;;;;;13.40;4.10;;;;;;;3.52;80.67;100261.92;435508;1250;99212;-38
2024/02/18 06:03:04;;;;;;;7.90;4.00;;;;;;;3.42;80.38;100266.17;435452;1250;110778;-40
2024/02/18 06:13:11;;;;;;;4.40;3.10;;;;;;;3.41;79.99;100275.15;435264;1256;108622;-40
2024/02/18 06:23:19;;;;;;;5.40;3.10;;;;;;;3.49;79.89;100282.92;435336;1254;99337;-39
2024/02/18 06:33:26;;;;;;;6.00;3.90;;;;;;;3.49;79.71;100295.29;435411;1251;111881;-40
2024/02/18 06:43:33;;;;;;;10.30;5.30;;;;;;;3.45;79.54;100301.48;435360;1254;107020;-40
2024/02/18 06:53:40;;;;;;;17.00;7.90;;;;;;;3.44;79.46;100310.76;435186;1254;98744;-40
2024/02/18 07:03:47;;;;;;;11.10;6.50;;;;;;;3.38;78.98;100320.38;435401;1250;112117;-40
2024/02/18 07:13:55;;;;;;;5.30;2.50;;;;;;;3.46;78.54;100326.33;435149;1256;107514;-40
2024/02/18 07:24:02;;;;;;;4.70;4.00;;;;;;;3.56;78.45;100341.20;435265;1250;99250;-40
2024/02/18 07:34:10;;;;;;;5.00;4.50;;;;;;;3.61;78.34;100348.98;435316;1251;111546;-40
2024/02/18 07:44:17;;;;;;;7.60;4.80;;;;;;;3.63;77.96;100351.89;435378;1256;107022;-39
2024/02/18 07:54:24;;;;;;;3.20;2.90;;;;;;;3.65;77.54;100353.41;435371;1256;99300;-39
2024/02/18 08:04:32;;;;;;;5.90;3.80;;;;;;;3.82;77.49;100346.61;435507;1254;111485;-39
2024/02/18 08:14:41;;;;;;;13.60;9.50;;;;;;;3.89;77.22;100341.42;435413;1254;107165;-39
2024/02/18 08:24:48;;;;;;;7.10;4.90;;;;;;;3.94;77.04;100338.25;435532;1256;99243;-39
2024/02/18 08:34:55;;;;;;;8.60;4.30;;;;;;;4.02;76.60;100338.73;435493;1256;111418;-39
2024/02/18 08:55:09;;;;;;;22.80;13.60;;;;;;;4.47;76.21;100347.48;435672;1256;99212;-39
2024/02/18 09:05:19;;;;;;;12.80;8.20;;;;;;;4.62;76.22;100344.33;435624;1250;111923;-39
2024/02/18 09:15:26;;;;;;;15.40;6.70;;;;;;;4.63;75.44;100339.91;435605;1250;109283;-40
2024/02/18 09:25:34;;;;;;;9.50;4.20;;;;;;;4.70;75.20;100337.95;435786;1255;99339;-40
2024/02/18 09:35:41;;;;;;;6.00;3.90;;;;;;;4.95;74.97;100333.17;435308;1257;110858;-40
2024/02/18 09:45:50;;;;;;;4.80;3.50;;;;;;;5.25;74.58;100323.60;435378;1255;107133;-40
2024/02/18 09:55:58;;;;;;;5.30;4.80;;;;;;;5.34;73.90;100317.56;435422;1251;98011;-39
2024/02/18 10:06:06;;;;;;;4.80;3.80;;;;;;;5.69;74.00;100315.45;435405;1255;108414;-40
2024/02/18 10:16:14;;;;;;;7.00;4.70;;;;;;;6.42;73.16;100302.88;435428;1250;99211;-41
2024/02/18 10:26:22;;;;;;;5.60;4.50;;;;;;;6.62;71.33;100287.50;436566;1250;111307;-40
2024/02/18 10:36:33;;;;;;;8.50;5.20;;;;;;;7.35;71.45;100283.45;435483;1250;107774;-40
2024/02/18 10:46:42;;;;;;;5.60;4.30;;;;;;;7.24;69.16;100270.41;435497;1257;97984;-39
2024/02/18 10:56:50;;;;;;;7.70;4.90;;;;;;;6.30;68.91;100255.99;435517;1256;111377;-39
2024/02/18 11:06:58;;;;;;;7.40;5.30;;;;;;;5.71;68.37;100246.11;435502;1251;107959;-40
2024/02/18 11:17:06;;;;;;;6.50;4.90;;;;;;;5.33;68.32;100225.69;435432;1251;98078;-40
2024/02/18 11:27:13;;;;;;;7.80;5.50;;;;;;;5.52;68.95;100213.60;435522;1256;110211;-40
2024/02/18 11:37:30;;;;;;;9.60;6.10;;;;;;;5.87;68.85;100183.02;435371;1256;106635;-39
2024/02/18 11:47:37;;;;;;;8.20;6.10;;;;;;;5.94;69.06;100168.45;435384;1256;98266;-40
2024/02/18 11:57:46;;;;;;;8.50;6.50;;;;;;;6.43;69.40;100158.87;435449;1251;111943;-40
2024/02/18 12:18:02;;;;;;;8.90;5.90;;;;;;;6.78;68.50;100140.61;435453;1257;99240;-41
2024/02/18 12:38:18;;;;;;;11.80;6.80;;;;;;;6.29;67.94;100120.09;435417;1257;107401;-39
2024/02/18 12:48:25;;;;;;;12.20;7.70;;;;;;;6.51;67.99;100103.45;435407;1251;98335;-40
2024/02/18 13:08:40;;;;;;;18.20;8.20;;;;;;;6.58;67.05;100072.26;435491;1251;97957;-40
2024/02/18 13:18:46;;;;;;;16.70;8.50;;;;;;;6.81;67.38;100065.98;435325;1257;111685;-40
2024/02/18 13:28:54;;;;;;;12.10;7.80;;;;;;;6.86;67.08;100042.52;435364;1255;107799;-40
2024/02/18 13:39:02;;;;;;;12.00;7.10;;;;;;;6.71;66.60;100024.17;435354;1258;99119;-41
2024/02/18 13:49:10;;;;;;;11.60;8.00;;;;;;;6.57;66.42;100024.72;435397;1256;112968;-40
2024/02/18 13:59:17;;;;;;;11.90;7.80;;;;;;;6.44;66.53;100017.55;435255;1264;108113;-40
2024/02/18 14:09:25;;;;;;;11.60;7.60;;;;;;;6.44;66.48;100009.44;435354;1257;99144;-39
2024/02/18 14:19:32;;;;;;;10.80;8.30;;;;;;;6.39;66.09;99990.73;435275;1251;112317;-40
2024/02/18 14:29:40;;;;;;;11.40;8.10;;;;;;;6.33;66.10;99984.37;435378;1255;107641;-40
2024/02/18 14:39:47;;;;;;;18.10;8.50;;;;;;;6.20;66.25;99969.77;435364;1251;99210;-39
2024/02/18 14:49:54;;;;;;;14.20;8.80;;;;;;;5.90;66.29;99964.07;435368;1257;111430;-39
2024/02/18 15:00:02;;;;;;;20.30;9.70;;;;;;;5.56;66.06;99956.58;435410;1265;108950;-40
2024/02/18 15:10:11;;;;;;;24.80;12.00;;;;;;;5.33;66.48;99949.98;435293;1251;99214;-41
2024/02/18 15:30:25;;;;;;;20.00;10.00;;;;;;;4.96;66.76;99944.45;435272;1255;108510;-41
2024/02/18 15:40:32;;;;;;;21.20;11.30;;;;;;;4.81;67.06;99941.17;435346;1251;99332;-40
2024/02/18 15:50:38;;;;;;;21.10;13.30;;;;;;;4.67;67.70;99937.17;435231;1255;111698;-39
2024/02/18 16:00:45;;;;;;;30.90;16.30;;;;;;;4.41;67.73;99919.61;435253;1253;107288;-40
2024/02/18 16:10:53;;;;;;;30.40;16.10;;;;;;;4.11;68.00;99888.86;435260;1254;568626;-41
2024/02/18 16:21:00;;;;;;;75.70;30.20;;;;;;;3.81;68.28;99872.13;435432;1251;111651;-39
2024/02/18 16:31:05;;;;;;;32.40;16.20;;;;;;;3.62;68.69;99878.05;435296;1254;107450;-40
2024/02/18 16:41:13;;;;;;;41.60;20.20;;;;;;;3.63;68.96;99877.95;435362;1254;99269;-40
2024/02/18 16:51:22;;;;;;;51.70;26.50;;;;;;;3.51;69.39;99872.71;435301;1251;111444;-39
2024/02/18 17:01:29;;;;;;;68.70;35.10;;;;;;;3.16;69.74;99858.73;435415;1254;107836;-40
2024/02/18 17:11:37;;;;;;;88.90;38.70;;;;;;;2.88;70.30;99839.24;435472;1254;99218;-40
2024/02/18 17:21:43;;;;;;;99.30;40.80;;;;;;;2.63;70.86;99825.00;435423;1250;110964;-40
2024/02/18 17:41:58;;;;;;;31.10;21.90;;;;;;;2.39;71.47;99809.01;435340;1251;98577;-40
2024/02/18 17:52:06;;;;;;;34.10;19.90;;;;;;;2.33;71.78;99798.14;435434;1254;108474;-40
2024/02/18 18:02:14;;;;;;;49.00;26.90;;;;;;;2.33;72.16;99786.80;435340;1252;97925;-38
2024/02/18 18:12:21;;;;;;;48.30;24.10;;;;;;;2.22;72.45;99772.92;435377;1254;112859;-39
2024/02/18 18:22:28;;;;;;;38.70;22.90;;;;;;;2.12;72.81;99762.73;435346;1254;108599;-40
2024/02/18 18:32:36;;;;;;;51.20;27.10;;;;;;;2.01;73.06;99744.27;435411;1254;98706;-40
2024/02/18 18:42:42;;;;;;;68.90;32.10;;;;;;;1.88;73.24;99720.04;435379;1250;111776;-40
2024/02/18 18:52:49;;;;;;;32.30;21.10;;;;;;;1.85;73.55;99702.77;435201;1254;108772;-40
2024/02/18 19:02:56;;;;;;;31.90;18.60;;;;;;;1.93;73.84;99682.34;435342;1251;99234;-40
2024/02/18 19:13:03;;;;;;;68.00;29.40;;;;;;;1.94;74.24;99672.34;435176;1250;111765;-40
2024/02/18 19:23:30;;;;;;;54.70;24.70;;;;;;;1.81;74.69;99664.93;435253;1254;108685;-40
2024/02/18 19:33:38;;;;;;;53.30;26.30;;;;;;;1.66;74.73;99655.11;435346;1254;98251;-39
2024/02/18 19:43:46;;;;;;;31.70;18.10;;;;;;;1.57;75.17;99651.45;435288;1254;111897;-38
2024/02/18 19:53:54;;;;;;;32.30;20.40;;;;;;;1.53;75.28;99648.55;435327;1254;108250;-39
2024/02/18 20:04:01;;;;;;;36.80;21.50;;;;;;;1.50;75.62;99632.85;435271;1254;99236;-39
2024/02/18 20:14:08;;;;;;;55.50;28.80;;;;;;;1.38;76.23;99619.93;435350;1254;108443;-39
2024/02/18 20:24:15;;;;;;;60.50;28.00;;;;;;;1.25;76.40;99614.23;435329;1255;99275;-38
2024/02/18 20:34:22;;;;;;;43.30;22.70;;;;;;;1.18;76.42;99605.30;435278;1254;111374;-38
2024/02/18 20:44:30;;;;;;;32.20;20.40;;;;;;;1.14;76.60;99593.14;435286;1254;107871;-39
2024/02/18 20:54:38;;;;;;;44.20;24.50;;;;;;;1.08;76.77;99583.31;435260;1251;98030;-40
2024/02/18 21:04:46;;;;;;;57.90;30.60;;;;;;;0.96;77.31;99570.96;435458;1254;108859;-39
2024/02/18 21:14:53;;;;;;;51.20;25.70;;;;;;;0.77;77.94;99553.44;435389;1254;99234;-40
2024/02/18 21:25:00;;;;;;;41.00;21.30;;;;;;;0.74;78.44;99535.89;435263;1250;111973;-40
2024/02/18 21:35:08;;;;;;;35.80;22.30;;;;;;;0.73;78.63;99515.56;435305;1251;108296;-40
2024/02/18 21:45:15;;;;;;;71.20;31.70;;;;;;;0.68;78.80;99504.23;435419;1254;99113;-39
2024/02/18 21:55:21;;;;;;;50.00;26.20;;;;;;;0.57;79.06;99493.96;435388;1250;112192;-39
2024/02/18 22:05:29;;;;;;;34.20;19.90;;;;;;;0.51;79.12;99488.94;435314;1250;107679;-40
2024/02/18 22:15:36;;;;;;;35.00;19.40;;;;;;;0.49;79.12;99486.17;435264;1250;99355;-40
2024/02/18 22:25:42;;;;;;;40.60;22.60;;;;;;;0.42;79.26;99477.80;435283;1265;111139;-39
2024/02/18 22:35:50;;;;;;;55.30;29.00;;;;;;;0.27;79.21;99465.53;435307;1250;108411;-39
2024/02/18 22:45:56;;;;;;;74.40;37.10;;;;;;;0.01;79.61;99464.17;435290;1254;97987;-39
2024/02/18 22:56:03;;;;;;;59.80;31.40;;;;;;;-0.14;79.68;99448.77;435484;1250;112934;-39
2024/02/18 23:06:10;;;;;;;51.80;28.00;;;;;;;-0.14;79.99;99439.93;435208;1250;106423;-39
2024/02/18 23:16:17;;;;;;;55.00;27.70;;;;;;;-0.14;80.08;99428.27;435315;1254;98028;-39
2024/02/18 23:26:25;;;;;;;83.20;38.80;;;;;;;-0.22;80.34;99406.48;435330;1252;108854;-40
2024/02/18 23:36:32;;;;;;;79.30;38.40;;;;;;;-0.34;80.77;99393.28;435344;1254;98521;-40
2024/02/18 23:46:39;;;;;;;54.80;26.50;;;;;;;-0.30;80.78;99381.42;435271;1254;112700;-40
2024/02/18 23:56:46;;;;;;;49.90;26.00;;;;;;;-0.28;81.29;99360.86;435398;1250;108284;-39
